sensor_id;sensor_type;location;lat;lon;timestamp;P1;durP1;ratioP1;P2;durP2;ratioP2
21987;SDS011;11158;53.404;-1.510;2022-09-09T00:02:20;28.05;;;22.63;;
21987;SDS011;11158;53.404;-1.510;2022-09-09T00:04:58;28.45;;;21.25;;
21987;SDS011;11158;53.404;-1.510;2022-09-09T00:07:40;29.67;;;22.77;;
21987;SDS011;11158;53.404;-1.510;2022-09-09T00:10:20;27.70;;;23.00;;
21987;SDS011;11158;53.404;-1.510;2022-09-09T00:15:17;34.95;;;24.25;;
21987;SDS011;11158;53.404;-1.510;2022-09-09T00:28:02;31.48;;;24.75;;
21987;SDS011;11158;53.404;-1.510;2022-09-09T00:30:34;28.92;;;23.77;;
21987;SDS011;11158;53.404;-1.510;2022-09-09T00:33:01;30.70;;;23.55;;
21987;SDS011;11158;53.404;-1.510;2022-09-09T00:35:36;31.48;;;24.45;;
21987;SDS011;11158;53.404;-1.510;2022-09-09T00:38:10;36.28;;;24.65;;
21987;SDS011;11158;53.404;-1.510;2022-09-09T00:40:42;32.95;;;24.75;;
21987;SDS011;11158;53.404;-1.510;2022-09-09T00:43:29;35.47;;;25.33;;
21987;SDS011;11158;53.404;-1.510;2022-09-09T00:48:47;31.40;;;25.55;;
21987;SDS011;11158;53.404;-1.510;2022-09-09T00:51:34;33.75;;;25.40;;
21987;SDS011;11158;53.404;-1.510;2022-09-09T01:08:03;36.13;;;24.92;;
21987;SDS011;11158;53.404;-1.510;2022-09-09T01:10:44;36.75;;;24.92;;
21987;SDS011;11158;53.404;-1.510;2022-09-09T01:13:17;38.17;;;24.48;;
21987;SDS011;11158;53.404;-1.510;2022-09-09T01:15:48;31.08;;;23.77;;
21987;SDS011;11158;53.404;-1.510;2022-09-09T01:18:16;32.15;;;21.95;;
21987;SDS011;11158;53.404;-1.510;2022-09-09T01:28:40;28.50;;;21.55;;
21987;SDS011;11158;53.404;-1.510;2022-09-09T01:31:15;31.42;;;21.52;;
21987;SDS011;11158;53.404;-1.510;2022-09-09T01:33:44;31.35;;;22.13;;
21987;SDS011;11158;53.404;-1.510;2022-09-09T01:36:15;27.75;;;22.13;;
21987;SDS011;11158;53.404;-1.510;2022-09-09T01:38:46;30.00;;;22.13;;
21987;SDS011;11158;53.404;-1.510;2022-09-09T01:41:13;31.52;;;21.05;;
21987;SDS011;11158;53.404;-1.510;2022-09-09T01:43:38;29.48;;;22.25;;
21987;SDS011;11158;53.404;-1.510;2022-09-09T01:46:04;33.63;;;22.05;;
21987;SDS011;11158;53.404;-1.510;2022-09-09T01:48:30;28.45;;;20.95;;
21987;SDS011;11158;53.404;-1.510;2022-09-09T01:50:57;29.00;;;20.35;;
21987;SDS011;11158;53.404;-1.510;2022-09-09T01:53:23;32.00;;;21.10;;
21987;SDS011;11158;53.404;-1.510;2022-09-09T02:04:23;33.13;;;21.27;;
21987;SDS011;11158;53.404;-1.510;2022-09-09T02:06:53;32.92;;;21.60;;
21987;SDS011;11158;53.404;-1.510;2022-09-09T02:09:25;34.78;;;22.33;;
21987;SDS011;11158;53.404;-1.510;2022-09-09T02:11:57;33.35;;;20.95;;
21987;SDS011;11158;53.404;-1.510;2022-09-09T02:14:46;30.50;;;21.30;;
21987;SDS011;11158;53.404;-1.510;2022-09-09T02:17:17;34.25;;;21.65;;
21987;SDS011;11158;53.404;-1.510;2022-09-09T02:19:49;28.80;;;21.52;;
21987;SDS011;11158;53.404;-1.510;2022-09-09T02:22:24;32.53;;;21.48;;
21987;SDS011;11158;53.404;-1.510;2022-09-09T02:24:52;30.27;;;21.05;;
21987;SDS011;11158;53.404;-1.510;2022-09-09T02:27:24;35.78;;;23.55;;
21987;SDS011;11158;53.404;-1.510;2022-09-09T02:29:51;33.40;;;21.35;;
21987;SDS011;11158;53.404;-1.510;2022-09-09T02:32:19;30.63;;;20.80;;
21987;SDS011;11158;53.404;-1.510;2022-09-09T02:34:58;29.13;;;20.33;;
21987;SDS011;11158;53.404;-1.510;2022-09-09T02:37:30;28.75;;;20.23;;
21987;SDS011;11158;53.404;-1.510;2022-09-09T02:40:05;26.75;;;19.13;;
21987;SDS011;11158;53.404;-1.510;2022-09-09T02:42:40;28.35;;;18.70;;
21987;SDS011;11158;53.404;-1.510;2022-09-09T02:45:08;29.42;;;19.95;;
21987;SDS011;11158;53.404;-1.510;2022-09-09T02:47:36;29.65;;;20.83;;
21987;SDS011;11158;53.404;-1.510;2022-09-09T02:53:09;26.45;;;19.17;;
21987;SDS011;11158;53.404;-1.510;2022-09-09T02:55:38;27.17;;;18.38;;
21987;SDS011;11158;53.404;-1.510;2022-09-09T02:58:10;28.98;;;17.95;;
21987;SDS011;11158;53.404;-1.510;2022-09-09T03:00:43;30.95;;;20.17;;
21987;SDS011;11158;53.404;-1.510;2022-09-09T03:03:12;30.23;;;20.88;;
21987;SDS011;11158;53.404;-1.510;2022-09-09T03:05:38;26.17;;;20.35;;
21987;SDS011;11158;53.404;-1.510;2022-09-09T03:08:04;33.28;;;21.02;;
21987;SDS011;11158;53.404;-1.510;2022-09-09T03:10:31;32.35;;;20.17;;
21987;SDS011;11158;53.404;-1.510;2022-09-09T03:12:58;28.52;;;19.98;;
21987;SDS011;11158;53.404;-1.510;2022-09-09T03:15:24;24.60;;;18.25;;
21987;SDS011;11158;53.404;-1.510;2022-09-09T03:17:55;26.70;;;18.80;;
21987;SDS011;11158;53.404;-1.510;2022-09-09T03:20:23;27.02;;;18.55;;
21987;SDS011;11158;53.404;-1.510;2022-09-09T03:22:51;25.63;;;18.52;;
21987;SDS011;11158;53.404;-1.510;2022-09-09T03:25:20;28.27;;;18.70;;
21987;SDS011;11158;53.404;-1.510;2022-09-09T03:27:49;24.45;;;19.15;;
21987;SDS011;11158;53.404;-1.510;2022-09-09T03:30:20;26.67;;;19.55;;
21987;SDS011;11158;53.404;-1.510;2022-09-09T03:32:47;24.83;;;18.38;;
21987;SDS011;11158;53.404;-1.510;2022-09-09T03:35:14;29.48;;;20.27;;
21987;SDS011;11158;53.404;-1.510;2022-09-09T03:37:41;28.65;;;19.27;;
21987;SDS011;11158;53.404;-1.510;2022-09-09T03:40:08;26.35;;;19.33;;
21987;SDS011;11158;53.404;-1.510;2022-09-09T03:42:35;23.58;;;18.23;;
21987;SDS011;11158;53.404;-1.510;2022-09-09T03:45:02;22.20;;;16.38;;
21987;SDS011;11158;53.404;-1.510;2022-09-09T03:47:34;25.27;;;17.27;;
21987;SDS011;11158;53.404;-1.510;2022-09-09T03:50:00;25.13;;;16.20;;
21987;SDS011;11158;53.404;-1.510;2022-09-09T03:52:26;22.95;;;16.63;;
21987;SDS011;11158;53.404;-1.510;2022-09-09T03:54:52;21.15;;;16.02;;
21987;SDS011;11158;53.404;-1.510;2022-09-09T03:57:19;19.80;;;16.73;;
21987;SDS011;11158;53.404;-1.510;2022-09-09T03:59:45;21.35;;;16.20;;
21987;SDS011;11158;53.404;-1.510;2022-09-09T04:02:11;20.88;;;16.17;;
21987;SDS011;11158;53.404;-1.510;2022-09-09T04:04:37;21.83;;;14.77;;
21987;SDS011;11158;53.404;-1.510;2022-09-09T04:07:03;19.80;;;15.70;;
21987;SDS011;11158;53.404;-1.510;2022-09-09T04:09:32;16.85;;;14.23;;
21987;SDS011;11158;53.404;-1.510;2022-09-09T04:11:58;18.20;;;14.45;;
21987;SDS011;11158;53.404;-1.510;2022-09-09T04:14:24;19.85;;;14.57;;
21987;SDS011;11158;53.404;-1.510;2022-09-09T04:16:54;19.13;;;14.05;;
21987;SDS011;11158;53.404;-1.510;2022-09-09T04:19:22;18.48;;;14.27;;
21987;SDS011;11158;53.404;-1.510;2022-09-09T04:21:48;19.92;;;15.13;;
21987;SDS011;11158;53.404;-1.510;2022-09-09T04:24:16;19.33;;;13.50;;
21987;SDS011;11158;53.404;-1.510;2022-09-09T04:26:41;14.48;;;12.75;;
21987;SDS011;11158;53.404;-1.510;2022-09-09T04:29:07;19.45;;;14.25;;
21987;SDS011;11158;53.404;-1.510;2022-09-09T04:31:33;18.83;;;14.27;;
21987;SDS011;11158;53.404;-1.510;2022-09-09T04:33:59;18.10;;;14.43;;
21987;SDS011;11158;53.404;-1.510;2022-09-09T04:36:30;19.25;;;15.35;;
21987;SDS011;11158;53.404;-1.510;2022-09-09T04:38:57;19.08;;;14.02;;
21987;SDS011;11158;53.404;-1.510;2022-09-09T04:41:22;18.15;;;14.18;;
21987;SDS011;11158;53.404;-1.510;2022-09-09T04:43:49;20.77;;;14.88;;
21987;SDS011;11158;53.404;-1.510;2022-09-09T04:46:15;20.30;;;15.18;;
21987;SDS011;11158;53.404;-1.510;2022-09-09T04:48:43;19.50;;;15.45;;
21987;SDS011;11158;53.404;-1.510;2022-09-09T04:51:11;18.88;;;15.23;;
21987;SDS011;11158;53.404;-1.510;2022-09-09T04:53:38;21.17;;;14.85;;
21987;SDS011;11158;53.404;-1.510;2022-09-09T04:58:31;19.13;;;13.55;;
21987;SDS011;11158;53.404;-1.510;2022-09-09T05:01:06;19.77;;;15.02;;
21987;SDS011;11158;53.404;-1.510;2022-09-09T05:03:33;18.27;;;14.50;;
21987;SDS011;11158;53.404;-1.510;2022-09-09T05:06:02;22.13;;;15.35;;
21987;SDS011;11158;53.404;-1.510;2022-09-09T05:08:29;21.48;;;15.40;;
21987;SDS011;11158;53.404;-1.510;2022-09-09T05:10:55;17.35;;;14.70;;
21987;SDS011;11158;53.404;-1.510;2022-09-09T05:13:21;18.58;;;14.45;;
21987;SDS011;11158;53.404;-1.510;2022-09-09T05:15:52;20.55;;;14.52;;
21987;SDS011;11158;53.404;-1.510;2022-09-09T05:18:18;18.45;;;13.68;;
21987;SDS011;11158;53.404;-1.510;2022-09-09T05:20:44;17.00;;;13.70;;
21987;SDS011;11158;53.404;-1.510;2022-09-09T05:23:09;20.40;;;14.43;;
21987;SDS011;11158;53.404;-1.510;2022-09-09T05:25:38;19.23;;;14.23;;
21987;SDS011;11158;53.404;-1.510;2022-09-09T05:28:05;19.60;;;14.35;;
21987;SDS011;11158;53.404;-1.510;2022-09-09T05:30:32;18.38;;;13.35;;
21987;SDS011;11158;53.404;-1.510;2022-09-09T05:32:58;19.30;;;14.27;;
21987;SDS011;11158;53.404;-1.510;2022-09-09T05:35:23;22.05;;;13.73;;
21987;SDS011;11158;53.404;-1.510;2022-09-09T05:37:49;19.85;;;14.25;;
21987;SDS011;11158;53.404;-1.510;2022-09-09T05:40:14;16.65;;;13.73;;
21987;SDS011;11158;53.404;-1.510;2022-09-09T05:42:40;20.50;;;14.05;;
21987;SDS011;11158;53.404;-1.510;2022-09-09T05:45:09;21.30;;;13.57;;
21987;SDS011;11158;53.404;-1.510;2022-09-09T05:47:36;22.63;;;14.90;;
21987;SDS011;11158;53.404;-1.510;2022-09-09T05:50:03;21.52;;;14.52;;
21987;SDS011;11158;53.404;-1.510;2022-09-09T05:52:29;18.65;;;14.40;;
21987;SDS011;11158;53.404;-1.510;2022-09-09T05:54:54;20.70;;;14.35;;
21987;SDS011;11158;53.404;-1.510;2022-09-09T05:57:22;23.35;;;14.40;;
21987;SDS011;11158;53.404;-1.510;2022-09-09T05:59:48;17.65;;;14.45;;
21987;SDS011;11158;53.404;-1.510;2022-09-09T06:02:13;23.45;;;16.27;;
21987;SDS011;11158;53.404;-1.510;2022-09-09T06:04:39;24.10;;;15.48;;
21987;SDS011;11158;53.404;-1.510;2022-09-09T06:07:05;21.83;;;15.95;;
21987;SDS011;11158;53.404;-1.510;2022-09-09T06:09:31;23.08;;;16.25;;
21987;SDS011;11158;53.404;-1.510;2022-09-09T06:11:56;22.08;;;15.15;;
21987;SDS011;11158;53.404;-1.510;2022-09-09T06:14:23;22.98;;;15.10;;
21987;SDS011;11158;53.404;-1.510;2022-09-09T06:16:50;21.48;;;15.88;;
21987;SDS011;11158;53.404;-1.510;2022-09-09T06:19:17;22.42;;;16.98;;
21987;SDS011;11158;53.404;-1.510;2022-09-09T06:21:43;26.73;;;16.63;;
21987;SDS011;11158;53.404;-1.510;2022-09-09T06:24:09;24.85;;;16.73;;
21987;SDS011;11158;53.404;-1.510;2022-09-09T06:26:39;24.02;;;16.88;;
21987;SDS011;11158;53.404;-1.510;2022-09-09T06:29:06;22.88;;;17.08;;
21987;SDS011;11158;53.404;-1.510;2022-09-09T06:31:33;24.05;;;16.65;;
21987;SDS011;11158;53.404;-1.510;2022-09-09T06:34:03;22.52;;;15.65;;
21987;SDS011;11158;53.404;-1.510;2022-09-09T06:36:32;23.90;;;15.82;;
21987;SDS011;11158;53.404;-1.510;2022-09-09T06:38:59;20.85;;;15.75;;
21987;SDS011;11158;53.404;-1.510;2022-09-09T06:41:26;22.80;;;16.27;;
21987;SDS011;11158;53.404;-1.510;2022-09-09T06:43:53;23.15;;;17.02;;
21987;SDS011;11158;53.404;-1.510;2022-09-09T06:46:24;24.60;;;15.93;;
21987;SDS011;11158;53.404;-1.510;2022-09-09T06:48:56;22.23;;;15.93;;
21987;SDS011;11158;53.404;-1.510;2022-09-09T06:51:25;26.85;;;16.10;;
21987;SDS011;11158;53.404;-1.510;2022-09-09T06:53:57;24.23;;;15.20;;
21987;SDS011;11158;53.404;-1.510;2022-09-09T06:56:26;28.17;;;16.65;;
21987;SDS011;11158;53.404;-1.510;2022-09-09T06:58:56;24.80;;;15.15;;
21987;SDS011;11158;53.404;-1.510;2022-09-09T07:01:30;23.45;;;14.80;;
21987;SDS011;11158;53.404;-1.510;2022-09-09T07:03:57;25.40;;;16.00;;
21987;SDS011;11158;53.404;-1.510;2022-09-09T07:06:25;27.10;;;16.27;;
21987;SDS011;11158;53.404;-1.510;2022-09-09T07:09:02;23.25;;;15.25;;
21987;SDS011;11158;53.404;-1.510;2022-09-09T07:11:30;24.67;;;15.45;;
21987;SDS011;11158;53.404;-1.510;2022-09-09T07:13:58;20.23;;;15.82;;
21987;SDS011;11158;53.404;-1.510;2022-09-09T07:16:25;21.50;;;15.43;;
21987;SDS011;11158;53.404;-1.510;2022-09-09T07:18:53;21.23;;;15.40;;
21987;SDS011;11158;53.404;-1.510;2022-09-09T07:21:23;23.58;;;15.02;;
21987;SDS011;11158;53.404;-1.510;2022-09-09T07:23:51;21.45;;;15.13;;
21987;SDS011;11158;53.404;-1.510;2022-09-09T07:26:21;22.35;;;14.32;;
21987;SDS011;11158;53.404;-1.510;2022-09-09T07:28:49;19.23;;;15.05;;
21987;SDS011;11158;53.404;-1.510;2022-09-09T07:31:16;20.40;;;14.95;;
21987;SDS011;11158;53.404;-1.510;2022-09-09T07:33:43;21.55;;;15.05;;
21987;SDS011;11158;53.404;-1.510;2022-09-09T07:36:12;25.65;;;15.05;;
21987;SDS011;11158;53.404;-1.510;2022-09-09T07:38:40;19.25;;;13.50;;
21987;SDS011;11158;53.404;-1.510;2022-09-09T07:41:10;23.63;;;14.43;;
21987;SDS011;11158;53.404;-1.510;2022-09-09T07:43:38;21.40;;;13.90;;
21987;SDS011;11158;53.404;-1.510;2022-09-09T07:46:06;22.00;;;13.50;;
21987;SDS011;11158;53.404;-1.510;2022-09-09T07:48:32;18.88;;;12.80;;
21987;SDS011;11158;53.404;-1.510;2022-09-09T07:53:37;16.92;;;10.98;;
21987;SDS011;11158;53.404;-1.510;2022-09-09T07:56:04;17.98;;;10.80;;
21987;SDS011;11158;53.404;-1.510;2022-09-09T07:58:32;14.73;;;9.88;;
21987;SDS011;11158;53.404;-1.510;2022-09-09T08:00:58;15.82;;;9.75;;
21987;SDS011;11158;53.404;-1.510;2022-09-09T08:03:24;15.70;;;9.45;;
21987;SDS011;11158;53.404;-1.510;2022-09-09T08:05:49;13.95;;;8.50;;
21987;SDS011;11158;53.404;-1.510;2022-09-09T08:08:15;11.60;;;7.38;;
21987;SDS011;11158;53.404;-1.510;2022-09-09T08:10:42;14.18;;;7.50;;
21987;SDS011;11158;53.404;-1.510;2022-09-09T08:13:08;11.65;;;7.15;;
21987;SDS011;11158;53.404;-1.510;2022-09-09T08:15:34;10.52;;;6.93;;
21987;SDS011;11158;53.404;-1.510;2022-09-09T08:18:00;12.65;;;7.45;;
21987;SDS011;11158;53.404;-1.510;2022-09-09T08:20:28;11.85;;;7.35;;
21987;SDS011;11158;53.404;-1.510;2022-09-09T08:22:55;10.88;;;6.22;;
21987;SDS011;11158;53.404;-1.510;2022-09-09T08:25:20;10.30;;;6.63;;
21987;SDS011;11158;53.404;-1.510;2022-09-09T08:27:46;10.27;;;6.63;;
21987;SDS011;11158;53.404;-1.510;2022-09-09T08:30:12;11.35;;;6.75;;
21987;SDS011;11158;53.404;-1.510;2022-09-09T08:32:40;13.82;;;7.38;;
21987;SDS011;11158;53.404;-1.510;2022-09-09T08:35:06;8.70;;;6.90;;
21987;SDS011;11158;53.404;-1.510;2022-09-09T08:37:33;11.20;;;7.05;;
21987;SDS011;11158;53.404;-1.510;2022-09-09T08:39:58;9.07;;;7.07;;
21987;SDS011;11158;53.404;-1.510;2022-09-09T08:52:53;11.90;;;6.88;;
21987;SDS011;11158;53.404;-1.510;2022-09-09T08:58:09;9.68;;;6.05;;
21987;SDS011;11158;53.404;-1.510;2022-09-09T09:03:27;6.93;;;5.47;;
21987;SDS011;11158;53.404;-1.510;2022-09-09T09:06:19;6.00;;;4.32;;
21987;SDS011;11158;53.404;-1.510;2022-09-09T09:09:05;7.50;;;3.85;;
21987;SDS011;11158;53.404;-1.510;2022-09-09T09:11:37;5.60;;;2.85;;
21987;SDS011;11158;53.404;-1.510;2022-09-09T09:16:48;5.75;;;2.67;;
21987;SDS011;11158;53.404;-1.510;2022-09-09T09:19:18;7.55;;;3.58;;
21987;SDS011;11158;53.404;-1.510;2022-09-09T09:21:45;6.57;;;3.28;;
21987;SDS011;11158;53.404;-1.510;2022-09-09T09:27:31;6.20;;;2.88;;
21987;SDS011;11158;53.404;-1.510;2022-09-09T09:30:17;6.78;;;2.15;;
21987;SDS011;11158;53.404;-1.510;2022-09-09T09:32:51;5.68;;;2.17;;
21987;SDS011;11158;53.404;-1.510;2022-09-09T09:35:17;5.60;;;2.03;;
21987;SDS011;11158;53.404;-1.510;2022-09-09T09:37:43;6.07;;;1.85;;
21987;SDS011;11158;53.404;-1.510;2022-09-09T09:45:27;4.25;;;1.65;;
21987;SDS011;11158;53.404;-1.510;2022-09-09T09:48:12;5.75;;;1.73;;
21987;SDS011;11158;53.404;-1.510;2022-09-09T09:50:55;3.15;;;1.48;;
21987;SDS011;11158;53.404;-1.510;2022-09-09T09:53:28;6.75;;;1.90;;
21987;SDS011;11158;53.404;-1.510;2022-09-09T09:55:57;12.07;;;2.60;;
21987;SDS011;11158;53.404;-1.510;2022-09-09T09:58:30;8.02;;;2.45;;
21987;SDS011;11158;53.404;-1.510;2022-09-09T10:00:59;5.20;;;1.83;;
21987;SDS011;11158;53.404;-1.510;2022-09-09T10:03:26;6.70;;;1.90;;
21987;SDS011;11158;53.404;-1.510;2022-09-09T10:08:24;6.65;;;1.92;;
21987;SDS011;11158;53.404;-1.510;2022-09-09T10:19:15;6.65;;;1.80;;
21987;SDS011;11158;53.404;-1.510;2022-09-09T10:27:25;6.07;;;1.83;;
21987;SDS011;11158;53.404;-1.510;2022-09-09T10:30:04;5.50;;;1.90;;
21987;SDS011;11158;53.404;-1.510;2022-09-09T10:36:02;4.47;;;1.80;;
21987;SDS011;11158;53.404;-1.510;2022-09-09T10:38:39;3.92;;;1.38;;
21987;SDS011;11158;53.404;-1.510;2022-09-09T10:57:52;6.97;;;1.60;;
21987;SDS011;11158;53.404;-1.510;2022-09-09T11:00:22;5.65;;;1.73;;
21987;SDS011;11158;53.404;-1.510;2022-09-09T11:02:55;4.15;;;1.77;;
21987;SDS011;11158;53.404;-1.510;2022-09-09T11:05:41;7.00;;;2.08;;
21987;SDS011;11158;53.404;-1.510;2022-09-09T11:08:14;4.07;;;1.35;;
21987;SDS011;11158;53.404;-1.510;2022-09-09T11:11:03;3.80;;;1.48;;
21987;SDS011;11158;53.404;-1.510;2022-09-09T11:16:22;3.67;;;1.30;;
21987;SDS011;11158;53.404;-1.510;2022-09-09T11:18:55;5.60;;;1.45;;
21987;SDS011;11158;53.404;-1.510;2022-09-09T11:21:28;5.40;;;1.42;;
21987;SDS011;11158;53.404;-1.510;2022-09-09T11:23:59;5.95;;;1.52;;
21987;SDS011;11158;53.404;-1.510;2022-09-09T11:26:41;3.38;;;1.20;;
21987;SDS011;11158;53.404;-1.510;2022-09-09T11:37:36;3.85;;;1.25;;
21987;SDS011;11158;53.404;-1.510;2022-09-09T11:40:30;3.38;;;1.10;;
21987;SDS011;11158;53.404;-1.510;2022-09-09T11:43:12;3.75;;;1.27;;
21987;SDS011;11158;53.404;-1.510;2022-09-09T11:45:51;3.17;;;1.23;;
21987;SDS011;11158;53.404;-1.510;2022-09-09T11:48:41;5.25;;;1.58;;
21987;SDS011;11158;53.404;-1.510;2022-09-09T11:53:50;6.18;;;1.85;;
21987;SDS011;11158;53.404;-1.510;2022-09-09T11:56:54;5.90;;;1.65;;
21987;SDS011;11158;53.404;-1.510;2022-09-09T11:59:24;7.35;;;2.00;;
21987;SDS011;11158;53.404;-1.510;2022-09-09T12:09:52;3.22;;;1.85;;
21987;SDS011;11158;53.404;-1.510;2022-09-09T12:12:36;8.35;;;1.80;;
21987;SDS011;11158;53.404;-1.510;2022-09-09T12:17:41;4.15;;;2.13;;
21987;SDS011;11158;53.404;-1.510;2022-09-09T12:23:06;5.63;;;1.92;;
21987;SDS011;11158;53.404;-1.510;2022-09-09T12:34:19;6.28;;;2.30;;
21987;SDS011;11158;53.404;-1.510;2022-09-09T12:37:02;3.53;;;2.00;;
21987;SDS011;11158;53.404;-1.510;2022-09-09T12:39:38;3.70;;;2.15;;
21987;SDS011;11158;53.404;-1.510;2022-09-09T12:42:16;6.80;;;2.80;;
21987;SDS011;11158;53.404;-1.510;2022-09-09T12:47:48;5.55;;;2.15;;
21987;SDS011;11158;53.404;-1.510;2022-09-09T12:50:20;4.47;;;2.10;;
21987;SDS011;11158;53.404;-1.510;2022-09-09T12:52:47;5.25;;;2.20;;
21987;SDS011;11158;53.404;-1.510;2022-09-09T12:55:18;5.63;;;2.08;;
21987;SDS011;11158;53.404;-1.510;2022-09-09T12:57:53;4.15;;;1.95;;
21987;SDS011;11158;53.404;-1.510;2022-09-09T13:00:20;4.93;;;1.92;;
21987;SDS011;11158;53.404;-1.510;2022-09-09T13:05:16;3.30;;;1.67;;
21987;SDS011;11158;53.404;-1.510;2022-09-09T13:07:50;8.10;;;1.60;;
21987;SDS011;11158;53.404;-1.510;2022-09-09T13:10:21;2.55;;;0.80;;
21987;SDS011;11158;53.404;-1.510;2022-09-09T13:12:52;2.47;;;0.80;;
21987;SDS011;11158;53.404;-1.510;2022-09-09T13:15:22;1.75;;;0.80;;
21987;SDS011;11158;53.404;-1.510;2022-09-09T13:18:11;2.83;;;0.90;;
21987;SDS011;11158;53.404;-1.510;2022-09-09T13:20:38;3.53;;;1.02;;
21987;SDS011;11158;53.404;-1.510;2022-09-09T13:23:11;6.43;;;1.42;;
21987;SDS011;11158;53.404;-1.510;2022-09-09T13:25:37;5.32;;;1.42;;
21987;SDS011;11158;53.404;-1.510;2022-09-09T13:28:04;3.67;;;1.17;;
21987;SDS011;11158;53.404;-1.510;2022-09-09T13:30:31;2.00;;;1.02;;
21987;SDS011;11158;53.404;-1.510;2022-09-09T13:33:06;2.40;;;0.80;;
21987;SDS011;11158;53.404;-1.510;2022-09-09T13:38:17;4.63;;;1.05;;
21987;SDS011;11158;53.404;-1.510;2022-09-09T13:43:42;3.13;;;1.00;;
21987;SDS011;11158;53.404;-1.510;2022-09-09T13:51:38;1.25;;;0.88;;
21987;SDS011;11158;53.404;-1.510;2022-09-09T13:54:06;3.78;;;1.08;;
21987;SDS011;11158;53.404;-1.510;2022-09-09T13:56:35;3.90;;;1.05;;
21987;SDS011;11158;53.404;-1.510;2022-09-09T13:59:03;2.40;;;0.90;;
21987;SDS011;11158;53.404;-1.510;2022-09-09T14:01:31;3.60;;;0.85;;
21987;SDS011;11158;53.404;-1.510;2022-09-09T14:03:56;2.10;;;0.63;;
21987;SDS011;11158;53.404;-1.510;2022-09-09T14:06:22;2.10;;;1.33;;
21987;SDS011;11158;53.404;-1.510;2022-09-09T14:08:49;1.38;;;0.50;;
21987;SDS011;11158;53.404;-1.510;2022-09-09T14:11:16;1.70;;;0.68;;
21987;SDS011;11158;53.404;-1.510;2022-09-09T14:13:43;1.85;;;0.65;;
21987;SDS011;11158;53.404;-1.510;2022-09-09T14:16:09;4.05;;;0.65;;
21987;SDS011;11158;53.404;-1.510;2022-09-09T14:18:35;3.85;;;1.00;;
21987;SDS011;11158;53.404;-1.510;2022-09-09T14:21:03;2.92;;;0.77;;
21987;SDS011;11158;53.404;-1.510;2022-09-09T14:23:29;2.50;;;1.00;;
21987;SDS011;11158;53.404;-1.510;2022-09-09T14:25:55;2.30;;;0.73;;
21987;SDS011;11158;53.404;-1.510;2022-09-09T14:28:21;2.63;;;0.70;;
21987;SDS011;11158;53.404;-1.510;2022-09-09T14:30:47;2.22;;;0.70;;
21987;SDS011;11158;53.404;-1.510;2022-09-09T14:33:14;0.50;;;0.38;;
21987;SDS011;11158;53.404;-1.510;2022-09-09T14:35:41;2.60;;;0.75;;
21987;SDS011;11158;53.404;-1.510;2022-09-09T14:38:08;2.20;;;0.55;;
21987;SDS011;11158;53.404;-1.510;2022-09-09T14:40:34;3.85;;;0.95;;
21987;SDS011;11158;53.404;-1.510;2022-09-09T14:43:02;3.05;;;0.65;;
21987;SDS011;11158;53.404;-1.510;2022-09-09T14:45:28;0.50;;;0.40;;
21987;SDS011;11158;53.404;-1.510;2022-09-09T14:47:54;1.77;;;0.80;;
21987;SDS011;11158;53.404;-1.510;2022-09-09T14:50:20;4.22;;;1.23;;
21987;SDS011;11158;53.404;-1.510;2022-09-09T14:52:48;2.10;;;0.70;;
21987;SDS011;11158;53.404;-1.510;2022-09-09T14:55:14;0.35;;;0.35;;
21987;SDS011;11158;53.404;-1.510;2022-09-09T14:57:41;2.55;;;0.63;;
21987;SDS011;11158;53.404;-1.510;2022-09-09T15:00:07;0.60;;;0.57;;
21987;SDS011;11158;53.404;-1.510;2022-09-09T15:02:34;1.25;;;0.60;;
21987;SDS011;11158;53.404;-1.510;2022-09-09T15:05:00;2.33;;;0.65;;
21987;SDS011;11158;53.404;-1.510;2022-09-09T15:07:26;1.17;;;0.57;;
21987;SDS011;11158;53.404;-1.510;2022-09-09T15:09:53;2.78;;;0.60;;
21987;SDS011;11158;53.404;-1.510;2022-09-09T15:12:19;3.30;;;1.15;;
21987;SDS011;11158;53.404;-1.510;2022-09-09T15:14:46;1.55;;;0.50;;
21987;SDS011;11158;53.404;-1.510;2022-09-09T15:17:12;2.75;;;0.73;;
21987;SDS011;11158;53.404;-1.510;2022-09-09T15:19:38;1.00;;;0.40;;
21987;SDS011;11158;53.404;-1.510;2022-09-09T15:22:05;2.95;;;0.70;;
21987;SDS011;11158;53.404;-1.510;2022-09-09T15:24:34;2.80;;;0.32;;
21987;SDS011;11158;53.404;-1.510;2022-09-09T15:27:00;1.33;;;0.52;;
21987;SDS011;11158;53.404;-1.510;2022-09-09T15:29:27;2.33;;;0.52;;
21987;SDS011;11158;53.404;-1.510;2022-09-09T15:31:53;1.85;;;0.52;;
21987;SDS011;11158;53.404;-1.510;2022-09-09T15:34:21;2.42;;;0.80;;
21987;SDS011;11158;53.404;-1.510;2022-09-09T15:36:47;1.30;;;0.60;;
21987;SDS011;11158;53.404;-1.510;2022-09-09T15:39:17;2.00;;;0.63;;
21987;SDS011;11158;53.404;-1.510;2022-09-09T15:41:44;2.55;;;0.50;;
21987;SDS011;11158;53.404;-1.510;2022-09-09T15:44:11;3.58;;;1.10;;
21987;SDS011;11158;53.404;-1.510;2022-09-09T15:49:09;3.00;;;0.50;;
21987;SDS011;11158;53.404;-1.510;2022-09-09T15:51:43;1.43;;;0.67;;
21987;SDS011;11158;53.404;-1.510;2022-09-09T15:54:12;1.05;;;0.50;;
21987;SDS011;11158;53.404;-1.510;2022-09-09T15:56:41;1.08;;;0.50;;
21987;SDS011;11158;53.404;-1.510;2022-09-09T15:59:07;2.47;;;0.40;;
21987;SDS011;11158;53.404;-1.510;2022-09-09T16:01:33;1.25;;;0.57;;
21987;SDS011;11158;53.404;-1.510;2022-09-09T16:03:59;2.35;;;0.80;;
21987;SDS011;11158;53.404;-1.510;2022-09-09T16:06:25;2.97;;;0.77;;
21987;SDS011;11158;53.404;-1.510;2022-09-09T16:08:53;0.95;;;0.50;;
21987;SDS011;11158;53.404;-1.510;2022-09-09T16:11:21;1.40;;;0.50;;
21987;SDS011;11158;53.404;-1.510;2022-09-09T16:13:50;1.88;;;0.50;;
21987;SDS011;11158;53.404;-1.510;2022-09-09T16:16:18;1.52;;;0.68;;
21987;SDS011;11158;53.404;-1.510;2022-09-09T16:18:48;7.47;;;2.75;;
21987;SDS011;11158;53.404;-1.510;2022-09-09T16:21:26;2.72;;;2.20;;
21987;SDS011;11158;53.404;-1.510;2022-09-09T16:23:57;4.93;;;3.40;;
21987;SDS011;11158;53.404;-1.510;2022-09-09T16:26:28;3.72;;;2.97;;
21987;SDS011;11158;53.404;-1.510;2022-09-09T16:28:56;2.95;;;1.08;;
21987;SDS011;11158;53.404;-1.510;2022-09-09T16:31:26;2.38;;;1.10;;
21987;SDS011;11158;53.404;-1.510;2022-09-09T16:33:53;3.67;;;1.55;;
21987;SDS011;11158;53.404;-1.510;2022-09-09T16:36:20;3.65;;;1.00;;
21987;SDS011;11158;53.404;-1.510;2022-09-09T16:38:51;4.72;;;1.00;;
21987;SDS011;11158;53.404;-1.510;2022-09-09T16:41:19;3.05;;;0.80;;
21987;SDS011;11158;53.404;-1.510;2022-09-09T16:43:45;1.15;;;0.70;;
21987;SDS011;11158;53.404;-1.510;2022-09-09T16:46:14;3.42;;;1.17;;
21987;SDS011;11158;53.404;-1.510;2022-09-09T16:48:42;4.97;;;1.10;;
21987;SDS011;11158;53.404;-1.510;2022-09-09T16:51:12;1.92;;;0.98;;
21987;SDS011;11158;53.404;-1.510;2022-09-09T16:53:42;2.95;;;0.98;;
21987;SDS011;11158;53.404;-1.510;2022-09-09T16:56:09;2.55;;;0.80;;
21987;SDS011;11158;53.404;-1.510;2022-09-09T16:58:37;2.92;;;0.80;;
21987;SDS011;11158;53.404;-1.510;2022-09-09T17:01:03;1.60;;;0.73;;
21987;SDS011;11158;53.404;-1.510;2022-09-09T17:03:30;2.53;;;1.05;;
21987;SDS011;11158;53.404;-1.510;2022-09-09T17:05:57;1.92;;;0.57;;
21987;SDS011;11158;53.404;-1.510;2022-09-09T17:08:30;3.38;;;1.63;;
21987;SDS011;11158;53.404;-1.510;2022-09-09T17:10:57;2.25;;;0.80;;
21987;SDS011;11158;53.404;-1.510;2022-09-09T17:13:22;0.60;;;0.60;;
21987;SDS011;11158;53.404;-1.510;2022-09-09T17:15:50;1.60;;;0.57;;
21987;SDS011;11158;53.404;-1.510;2022-09-09T17:18:15;0.90;;;0.50;;
21987;SDS011;11158;53.404;-1.510;2022-09-09T17:20:42;1.98;;;1.08;;
21987;SDS011;11158;53.404;-1.510;2022-09-09T17:23:09;4.15;;;3.75;;
21987;SDS011;11158;53.404;-1.510;2022-09-09T17:25:40;5.28;;;3.85;;
21987;SDS011;11158;53.404;-1.510;2022-09-09T17:28:06;2.25;;;1.80;;